createdAt,value
2022-08-31T00:01:43.257Z,1.60
2022-08-31T00:03:58.091Z,1.67
2022-08-31T00:06:01.959Z,1.63
2022-08-31T00:08:04.725Z,1.60
2022-08-31T00:10:14.376Z,1.47
2022-08-31T00:12:17.087Z,1.20
2022-08-31T00:14:19.823Z,1.60
2022-08-31T00:16:22.637Z,1.40
2022-08-31T00:18:25.412Z,1.40
2022-08-31T00:20:33.090Z,1.73
2022-08-31T00:22:37.337Z,2.17
2022-08-31T00:24:40.152Z,1.80
2022-08-31T00:26:43.057Z,1.33
2022-08-31T00:28:45.792Z,1.43
2022-08-31T00:30:48.728Z,1.40
2022-08-31T00:32:51.512Z,1.70
2022-08-31T00:34:54.937Z,1.13
2022-08-31T00:36:59.879Z,1.40
2022-08-31T00:39:02.632Z,1.27
2022-08-31T00:41:05.360Z,1.40
2022-08-31T00:43:08.079Z,1.27
2022-08-31T00:45:11.527Z,1.20
2022-08-31T00:47:14.310Z,1.63
2022-08-31T00:49:18.605Z,1.40
2022-08-31T00:51:21.322Z,1.33
2022-08-31T00:53:25.499Z,1.73
2022-08-31T00:55:30.651Z,1.60
2022-08-31T00:57:35.134Z,1.07
2022-08-31T00:59:37.877Z,1.23
2022-08-31T01:01:40.623Z,1.03
2022-08-31T01:03:43.372Z,1.17
2022-08-31T01:05:46.089Z,1.30
2022-08-31T01:07:49.030Z,1.37
2022-08-31T01:09:55.852Z,1.30
2022-08-31T01:11:58.838Z,1.47
2022-08-31T01:14:01.645Z,1.30
2022-08-31T01:16:06.714Z,1.20
2022-08-31T01:18:09.488Z,1.40
2022-08-31T01:20:16.160Z,1.20
2022-08-31T01:22:22.988Z,1.40
2022-08-31T01:24:27.408Z,1.50
2022-08-31T01:26:30.906Z,1.20
2022-08-31T01:28:33.628Z,1.20
2022-08-31T01:30:36.636Z,1.00
2022-08-31T01:32:39.491Z,1.23
2022-08-31T01:34:42.277Z,1.33
2022-08-31T01:36:44.984Z,1.10
2022-08-31T01:38:53.340Z,1.33
2022-08-31T01:40:58.812Z,1.27
2022-08-31T01:43:01.541Z,1.30
2022-08-31T01:45:04.476Z,1.50
2022-08-31T01:47:07.310Z,1.30
2022-08-31T01:49:10.207Z,1.47
2022-08-31T01:51:13.467Z,1.10
2022-08-31T01:53:16.594Z,1.10
2022-08-31T01:55:19.665Z,1.20
2022-08-31T01:57:33.286Z,1.30
2022-08-31T01:59:37.497Z,1.53
2022-08-31T02:01:42.835Z,1.23
2022-08-31T02:03:45.682Z,1.20
2022-08-31T02:05:48.394Z,1.27
2022-08-31T02:07:51.109Z,1.30
2022-08-31T02:09:53.828Z,1.63
2022-08-31T02:11:56.536Z,1.30
2022-08-31T02:14:00.595Z,1.10
2022-08-31T02:16:03.946Z,1.30
2022-08-31T02:18:07.077Z,1.47
2022-08-31T02:20:11.140Z,1.03
2022-08-31T02:22:13.863Z,1.80
2022-08-31T02:24:16.724Z,1.33
2022-08-31T02:26:19.793Z,1.17
2022-08-31T02:28:22.689Z,1.10
2022-08-31T02:30:26.851Z,1.33
2022-08-31T02:32:29.548Z,1.40
2022-08-31T02:34:32.292Z,1.10
2022-08-31T02:36:35.978Z,1.20
2022-08-31T02:38:39.025Z,1.27
2022-08-31T02:40:41.810Z,1.30
2022-08-31T02:42:52.449Z,1.63
2022-08-31T02:44:56.919Z,1.20
2022-08-31T02:47:00.948Z,1.57
2022-08-31T02:49:03.863Z,1.50
2022-08-31T02:51:08.472Z,1.40
2022-08-31T02:53:11.424Z,2.13
2022-08-31T02:55:14.284Z,1.30
2022-08-31T02:57:17.059Z,1.30
2022-08-31T02:59:20.701Z,1.80
2022-08-31T03:01:23.566Z,1.63
2022-08-31T03:03:27.638Z,1.70
2022-08-31T03:05:30.515Z,1.53
2022-08-31T03:07:34.051Z,1.70
2022-08-31T03:09:36.872Z,1.70
2022-08-31T03:11:39.581Z,1.20
2022-08-31T03:13:42.462Z,1.50
2022-08-31T03:15:45.234Z,1.90
2022-08-31T03:17:48.024Z,1.33
2022-08-31T03:19:52.067Z,1.50
2022-08-31T03:21:56.149Z,1.57
2022-08-31T03:23:59.060Z,1.40
2022-08-31T03:26:02.893Z,1.60
2022-08-31T03:28:05.591Z,1.70
2022-08-31T03:30:10.138Z,1.53
2022-08-31T03:32:13.577Z,1.50
2022-08-31T03:34:16.304Z,1.50
2022-08-31T03:36:20.383Z,1.47
2022-08-31T03:38:23.116Z,1.77
2022-08-31T03:40:25.893Z,1.80
2022-08-31T03:42:28.933Z,1.60
2022-08-31T03:44:34.988Z,1.60
2022-08-31T03:46:37.769Z,1.57
2022-08-31T03:48:41.025Z,1.30
2022-08-31T03:50:43.923Z,1.70
2022-08-31T03:52:48.061Z,2.10
2022-08-31T03:54:50.793Z,1.60
2022-08-31T03:56:53.512Z,1.60
2022-08-31T03:58:56.252Z,1.80
2022-08-31T04:00:58.958Z,2.10
2022-08-31T04:03:01.874Z,2.00
2022-08-31T04:05:04.971Z,1.70
2022-08-31T04:07:07.685Z,1.67
2022-08-31T04:09:11.766Z,1.60
2022-08-31T04:11:15.577Z,1.60
2022-08-31T04:13:18.359Z,1.70
2022-08-31T04:15:21.320Z,1.90
2022-08-31T04:17:24.053Z,1.83
2022-08-31T04:19:26.776Z,1.60
2022-08-31T04:21:30.974Z,1.67
2022-08-31T04:23:33.679Z,1.57
2022-08-31T04:25:40.181Z,1.83
2022-08-31T04:27:42.879Z,1.80
2022-08-31T04:29:45.627Z,1.90
2022-08-31T04:31:48.340Z,1.50
2022-08-31T04:33:51.062Z,1.57
2022-08-31T04:35:53.768Z,1.50
2022-08-31T04:37:56.614Z,1.57
2022-08-31T04:40:01.287Z,1.90
2022-08-31T04:42:06.489Z,1.53
2022-08-31T04:44:11.252Z,1.80
2022-08-31T04:46:14.116Z,1.80
2022-08-31T04:48:16.835Z,1.77
2022-08-31T04:50:19.766Z,1.93
2022-08-31T04:52:24.673Z,1.80
2022-08-31T04:54:31.171Z,2.00
2022-08-31T04:56:34.896Z,1.90
2022-08-31T04:58:38.930Z,1.80
2022-08-31T05:00:43.155Z,2.30
2022-08-31T05:02:50.050Z,1.57
2022-08-31T05:04:58.547Z,2.13
2022-08-31T05:07:01.639Z,1.97
2022-08-31T05:09:05.964Z,10.20
2022-08-31T05:11:10.828Z,1.93
2022-08-31T05:13:13.596Z,1.90
2022-08-31T05:15:18.188Z,2.20
2022-08-31T05:17:20.920Z,1.50
2022-08-31T05:19:23.643Z,1.97
2022-08-31T05:21:28.186Z,1.73
2022-08-31T05:23:30.895Z,1.80
2022-08-31T05:25:33.847Z,2.00
2022-08-31T05:27:38.200Z,2.23
2022-08-31T05:29:40.912Z,1.93
2022-08-31T05:31:49.058Z,2.40
2022-08-31T05:33:54.317Z,2.10
2022-08-31T05:35:57.109Z,2.30
2022-08-31T05:37:59.808Z,1.83
2022-08-31T05:40:02.838Z,1.93
2022-08-31T05:42:07.373Z,2.17
2022-08-31T05:44:10.222Z,2.30
2022-08-31T05:46:14.216Z,2.20
2022-08-31T05:48:18.892Z,2.20
2022-08-31T05:50:21.603Z,1.83
2022-08-31T05:52:25.013Z,2.07
2022-08-31T05:54:28.187Z,1.90
2022-08-31T05:56:30.967Z,2.07
2022-08-31T05:58:33.914Z,2.30
2022-08-31T06:00:38.757Z,4.33
2022-08-31T06:02:42.200Z,10.57
2022-08-31T06:04:46.297Z,13.53
2022-08-31T06:06:49.017Z,7.60
2022-08-31T06:08:52.171Z,5.13
2022-08-31T06:10:57.765Z,3.40
2022-08-31T06:13:01.953Z,9.13
2022-08-31T06:15:05.129Z,5.10
2022-08-31T06:17:07.849Z,2.50
2022-08-31T06:19:10.562Z,2.70
2022-08-31T06:21:15.644Z,2.30
2022-08-31T06:23:18.523Z,2.03
2022-08-31T06:25:23.504Z,1.90
2022-08-31T06:27:27.548Z,1.90
2022-08-31T06:29:31.377Z,1.40
2022-08-31T06:31:37.894Z,1.93
2022-08-31T06:33:42.558Z,2.27
2022-08-31T06:35:45.285Z,1.97
2022-08-31T06:37:49.961Z,2.33
2022-08-31T06:39:53.770Z,2.20
2022-08-31T06:41:56.899Z,2.57
2022-08-31T06:44:00.177Z,1.77
2022-08-31T06:46:03.265Z,1.93
2022-08-31T06:48:06.261Z,1.97
2022-08-31T06:50:09.791Z,2.23
2022-08-31T06:52:12.526Z,1.80
2022-08-31T06:54:29.008Z,2.53
2022-08-31T06:56:32.046Z,1.83
2022-08-31T06:58:34.927Z,1.90
2022-08-31T07:00:37.638Z,2.00
2022-08-31T07:02:40.767Z,2.10
2022-08-31T07:04:43.517Z,2.00
2022-08-31T07:06:46.321Z,2.30
2022-08-31T07:08:51.921Z,1.60
2022-08-31T07:10:55.971Z,1.87
2022-08-31T07:12:58.686Z,2.20
2022-08-31T07:15:01.480Z,1.97
2022-08-31T07:17:04.447Z,1.97
2022-08-31T07:19:07.199Z,1.53
2022-08-31T07:21:11.367Z,1.80
2022-08-31T07:23:14.088Z,1.60
2022-08-31T07:25:18.099Z,2.00
2022-08-31T07:27:22.136Z,1.80
2022-08-31T07:29:25.236Z,1.60
2022-08-31T07:31:31.683Z,1.47
2022-08-31T07:33:38.127Z,2.20
2022-08-31T07:35:40.842Z,1.90
2022-08-31T07:38:01.760Z,1.77
2022-08-31T07:40:22.905Z,1.90
2022-08-31T07:42:28.612Z,1.53
2022-08-31T07:44:32.116Z,1.83
2022-08-31T07:46:35.913Z,1.40
2022-08-31T07:48:38.797Z,1.80
2022-08-31T07:50:44.339Z,1.80
2022-08-31T07:52:52.997Z,1.80
2022-08-31T07:54:56.833Z,2.13
2022-08-31T07:57:04.233Z,1.80
2022-08-31T07:59:08.671Z,1.90
2022-08-31T08:01:14.893Z,1.70
2022-08-31T08:03:17.701Z,1.97
2022-08-31T08:05:24.459Z,1.67
2022-08-31T08:07:33.699Z,1.57
2022-08-31T08:09:36.571Z,1.70
2022-08-31T08:11:44.270Z,1.53
2022-08-31T08:13:47.131Z,1.60
2022-08-31T08:15:53.710Z,1.73
2022-08-31T08:17:56.464Z,1.53
2022-08-31T08:19:59.178Z,1.37
2022-08-31T08:22:02.815Z,1.87
2022-08-31T08:24:05.845Z,1.93
2022-08-31T08:26:21.332Z,1.90
2022-08-31T08:28:41.127Z,1.60
2022-08-31T08:30:45.865Z,1.90
2022-08-31T08:32:50.058Z,1.70
2022-08-31T08:34:52.797Z,2.00
2022-08-31T08:36:55.524Z,1.77
2022-08-31T08:38:59.058Z,1.20
2022-08-31T08:41:02.843Z,1.90
2022-08-31T08:43:06.110Z,1.90
2022-08-31T08:45:09.723Z,1.60
2022-08-31T08:47:15.107Z,1.40
2022-08-31T08:49:22.310Z,1.87
2022-08-31T08:51:32.445Z,2.17
2022-08-31T08:53:35.147Z,1.80
2022-08-31T08:55:39.263Z,1.80
2022-08-31T08:57:42.854Z,1.93
2022-08-31T08:59:46.800Z,1.10
2022-08-31T09:01:50.453Z,1.80
2022-08-31T09:03:57.267Z,1.50
2022-08-31T09:06:03.254Z,1.50
2022-08-31T09:08:23.340Z,1.87
2022-08-31T09:10:28.984Z,1.80
2022-08-31T09:12:38.338Z,1.80
2022-08-31T09:14:53.984Z,1.50
2022-08-31T09:16:59.713Z,1.90
2022-08-31T09:19:03.699Z,1.60
2022-08-31T09:21:16.119Z,1.77
2022-08-31T09:23:18.919Z,1.90
2022-08-31T09:25:26.874Z,1.70
2022-08-31T09:27:47.024Z,1.77
2022-08-31T09:29:54.831Z,2.10
2022-08-31T09:32:06.150Z,1.43
2022-08-31T09:34:14.219Z,1.73
2022-08-31T09:36:19.532Z,2.07
2022-08-31T09:38:29.200Z,1.60
2022-08-31T09:40:38.267Z,1.53
2022-08-31T09:42:41.415Z,1.67
2022-08-31T09:44:45.436Z,1.33
2022-08-31T09:46:48.628Z,1.40
2022-08-31T09:48:52.574Z,1.40
2022-08-31T09:51:01.163Z,1.23
2022-08-31T09:53:29.434Z,1.50
2022-08-31T09:55:32.297Z,1.30
2022-08-31T09:57:46.278Z,1.50
2022-08-31T09:59:51.424Z,1.67
2022-08-31T10:01:55.503Z,1.20
2022-08-31T10:04:19.173Z,1.33
2022-08-31T10:06:30.214Z,1.83
2022-08-31T10:08:42.018Z,1.70
2022-08-31T10:10:44.935Z,1.33
2022-08-31T10:12:49.444Z,1.60
2022-08-31T10:14:53.875Z,1.73
2022-08-31T10:17:02.584Z,1.73
2022-08-31T10:19:06.335Z,1.73
2022-08-31T10:21:12.590Z,1.93
2022-08-31T10:23:19.066Z,6.60
2022-08-31T10:25:26.814Z,1.50
2022-08-31T10:27:31.386Z,1.50
2022-08-31T10:29:36.163Z,1.50
2022-08-31T10:31:46.252Z,1.67
2022-08-31T10:34:11.787Z,1.60
2022-08-31T10:36:16.049Z,2.07
2022-08-31T10:38:26.259Z,1.30
2022-08-31T10:40:32.984Z,1.40
2022-08-31T10:42:38.356Z,1.90
2022-08-31T10:44:49.877Z,1.77
2022-08-31T10:46:54.299Z,1.50
2022-08-31T10:48:57.427Z,1.60
2022-08-31T10:51:06.521Z,1.93
2022-08-31T10:53:15.373Z,1.67
2022-08-31T10:55:23.517Z,1.50
2022-08-31T10:57:32.193Z,1.40
2022-08-31T10:59:36.868Z,1.67
2022-08-31T11:01:45.979Z,1.40
2022-08-31T11:04:30.034Z,1.97
2022-08-31T11:06:34.378Z,1.60
2022-08-31T11:08:49.015Z,1.10
2022-08-31T11:10:53.329Z,1.57
2022-08-31T11:12:58.880Z,1.57
2022-08-31T11:15:29.275Z,1.40
2022-08-31T11:17:39.265Z,1.50
2022-08-31T11:20:03.676Z,1.73
2022-08-31T11:22:28.548Z,1.30
2022-08-31T11:24:57.903Z,1.50
2022-08-31T11:27:04.299Z,1.60
2022-08-31T11:29:13.364Z,1.80
2022-08-31T11:31:23.888Z,1.43
2022-08-31T11:33:28.038Z,1.40
2022-08-31T11:36:02.710Z,1.43
2022-08-31T11:38:10.796Z,1.90
2022-08-31T11:40:15.595Z,1.63
2022-08-31T11:43:01.027Z,1.67
2022-08-31T11:45:07.406Z,1.90
2022-08-31T11:47:12.895Z,1.80
2022-08-31T11:49:43.927Z,1.47
2022-08-31T11:51:48.041Z,1.60
2022-08-31T11:53:52.794Z,1.60
2022-08-31T11:55:59.535Z,2.30
2022-08-31T11:58:25.835Z,1.30
2022-08-31T12:00:43.972Z,1.70
2022-08-31T12:03:02.591Z,1.40
2022-08-31T12:05:07.039Z,1.60
2022-08-31T12:07:11.108Z,1.43
2022-08-31T12:09:21.729Z,1.47
2022-08-31T12:11:32.801Z,1.70
2022-08-31T12:13:39.664Z,1.93
2022-08-31T12:16:09.322Z,1.80
2022-08-31T12:18:20.023Z,1.90
2022-08-31T12:20:24.160Z,1.87
2022-08-31T12:23:08.268Z,1.60
2022-08-31T12:25:15.254Z,1.67
2022-08-31T12:27:27.004Z,1.60
2022-08-31T12:29:30.411Z,1.13
2022-08-31T12:31:34.909Z,1.57
2022-08-31T12:33:37.623Z,1.50
2022-08-31T12:35:40.346Z,1.83
2022-08-31T12:37:43.084Z,1.60
2022-08-31T12:39:45.783Z,1.57
2022-08-31T12:41:50.464Z,1.43
2022-08-31T12:43:53.165Z,1.50
2022-08-31T12:46:19.574Z,1.87
2022-08-31T12:48:32.685Z,1.40
2022-08-31T12:50:37.585Z,1.70
2022-08-31T12:52:49.985Z,1.77
2022-08-31T12:55:08.340Z,1.50
2022-08-31T12:57:15.291Z,1.60
2022-08-31T12:59:45.649Z,1.20
2022-08-31T13:01:51.092Z,1.30
2022-08-31T13:03:56.427Z,1.60
2022-08-31T13:06:08.138Z,1.77
2022-08-31T13:08:20.858Z,2.17
2022-08-31T13:10:29.755Z,1.43
2022-08-31T13:12:32.511Z,1.70
2022-08-31T13:14:40.617Z,1.40
2022-08-31T13:16:44.821Z,1.77
2022-08-31T13:18:47.842Z,1.53
2022-08-31T13:20:56.146Z,1.30
2022-08-31T13:23:02.285Z,1.20
2022-08-31T13:25:15.963Z,1.70
2022-08-31T13:27:19.618Z,2.10
2022-08-31T13:29:24.608Z,1.50
2022-08-31T13:31:29.027Z,1.50
2022-08-31T13:33:32.641Z,1.50
2022-08-31T13:35:35.640Z,1.93
2022-08-31T13:37:40.973Z,1.63
2022-08-31T13:39:45.987Z,1.10
2022-08-31T13:41:56.200Z,1.50
2022-08-31T13:44:02.669Z,1.77
2022-08-31T13:46:06.917Z,1.73
2022-08-31T13:48:14.645Z,1.20
2022-08-31T13:50:21.731Z,2.00
2022-08-31T13:52:26.436Z,1.47
2022-08-31T13:54:32.319Z,1.80
2022-08-31T13:56:54.701Z,1.63
2022-08-31T13:59:17.462Z,1.63
2022-08-31T14:01:21.986Z,1.63
2022-08-31T14:03:32.992Z,1.43
2022-08-31T14:05:36.688Z,1.40
2022-08-31T14:07:59.374Z,1.80
2022-08-31T14:10:08.811Z,1.50
2022-08-31T14:12:11.813Z,1.50
2022-08-31T14:14:14.516Z,1.73
2022-08-31T14:16:32.875Z,1.90
2022-08-31T14:18:40.133Z,1.60
2022-08-31T14:21:10.007Z,1.47
2022-08-31T14:23:27.824Z,1.63
2022-08-31T14:25:34.298Z,1.37
2022-08-31T14:27:43.095Z,1.50
2022-08-31T14:29:45.790Z,1.63
2022-08-31T14:31:51.865Z,1.60
2022-08-31T14:34:07.910Z,1.30
2022-08-31T14:36:14.428Z,1.63
2022-08-31T14:38:18.069Z,1.50
2022-08-31T14:40:20.830Z,1.77
2022-08-31T14:42:27.047Z,1.40
2022-08-31T14:44:31.672Z,1.50
2022-08-31T14:46:35.153Z,1.30
2022-08-31T14:48:44.072Z,1.47
2022-08-31T14:50:46.800Z,1.63
2022-08-31T14:52:52.960Z,1.80
2022-08-31T14:55:02.568Z,1.60
2022-08-31T14:57:07.913Z,1.63
2022-08-31T14:59:13.910Z,1.40
2022-08-31T15:01:17.412Z,2.00
2022-08-31T15:03:24.319Z,1.43
2022-08-31T15:05:27.027Z,1.27
2022-08-31T15:07:32.063Z,1.60
2022-08-31T15:09:34.999Z,1.70
2022-08-31T15:11:39.823Z,1.30
2022-08-31T15:13:42.971Z,1.63
2022-08-31T15:15:47.882Z,1.30
2022-08-31T15:17:51.546Z,2.13
2022-08-31T15:19:55.948Z,1.87
2022-08-31T15:22:08.013Z,1.63
2022-08-31T15:24:11.347Z,1.47
2022-08-31T15:26:15.169Z,1.40
2022-08-31T15:28:18.403Z,1.63
2022-08-31T15:30:22.338Z,1.43
2022-08-31T15:32:29.493Z,1.43
2022-08-31T15:34:32.844Z,1.37
2022-08-31T15:36:36.507Z,1.60
2022-08-31T15:38:40.307Z,1.43
2022-08-31T15:40:43.410Z,1.67
2022-08-31T15:42:46.183Z,1.93
2022-08-31T15:44:55.555Z,1.40
2022-08-31T15:47:16.061Z,1.47
2022-08-31T15:49:20.112Z,1.33
2022-08-31T15:51:27.702Z,1.30
2022-08-31T15:53:32.005Z,1.60
2022-08-31T15:55:35.217Z,1.47
2022-08-31T15:57:39.022Z,1.20
2022-08-31T15:59:43.551Z,1.50
2022-08-31T16:01:46.651Z,2.10
2022-08-31T16:03:52.240Z,1.50
2022-08-31T16:05:56.392Z,1.60
2022-08-31T16:08:00.545Z,1.40
2022-08-31T16:10:03.533Z,1.30
2022-08-31T16:12:10.953Z,1.20
2022-08-31T16:14:15.516Z,1.40
2022-08-31T16:16:20.316Z,1.40
2022-08-31T16:18:23.317Z,1.40
2022-08-31T16:20:27.355Z,1.20
2022-08-31T16:22:31.613Z,1.20
2022-08-31T16:24:37.361Z,1.37
2022-08-31T16:26:42.471Z,1.40
2022-08-31T16:28:45.252Z,1.43
2022-08-31T16:30:48.051Z,1.77
2022-08-31T16:32:52.452Z,1.57
2022-08-31T16:34:56.502Z,1.20
2022-08-31T16:36:59.999Z,1.57
2022-08-31T16:39:04.196Z,1.60
2022-08-31T16:41:07.399Z,1.80
2022-08-31T16:43:10.437Z,1.23
2022-08-31T16:45:13.309Z,1.60
2022-08-31T16:47:16.677Z,1.50
2022-08-31T16:49:33.559Z,1.50
2022-08-31T16:51:36.416Z,1.20
2022-08-31T16:53:46.330Z,1.60
2022-08-31T16:55:50.442Z,1.60
2022-08-31T16:57:53.251Z,1.30
2022-08-31T16:59:56.197Z,1.63
2022-08-31T17:01:59.079Z,1.10
2022-08-31T17:04:03.251Z,1.10
2022-08-31T17:06:06.209Z,1.20
2022-08-31T17:08:14.792Z,1.60
2022-08-31T17:10:18.019Z,1.53
2022-08-31T17:12:25.972Z,1.50
2022-08-31T17:14:32.197Z,1.50
2022-08-31T17:16:36.262Z,1.30
2022-08-31T17:18:41.077Z,1.50
2022-08-31T17:20:43.858Z,1.43
2022-08-31T17:22:48.604Z,1.20
2022-08-31T17:24:56.352Z,1.40
2022-08-31T17:27:01.263Z,1.30
2022-08-31T17:29:07.086Z,1.33
2022-08-31T17:31:09.965Z,1.40
2022-08-31T17:33:14.047Z,1.23
2022-08-31T17:35:18.307Z,1.20
2022-08-31T17:37:23.036Z,1.33
2022-08-31T17:39:25.966Z,1.50
2022-08-31T17:41:29.380Z,1.47
2022-08-31T17:43:39.299Z,1.03
2022-08-31T17:45:43.414Z,1.00
2022-08-31T17:47:46.195Z,1.10
2022-08-31T17:49:50.569Z,1.00
2022-08-31T17:51:54.057Z,1.63
2022-08-31T17:53:57.908Z,1.17
2022-08-31T17:56:00.973Z,1.83
2022-08-31T17:58:04.353Z,1.40
2022-08-31T18:00:08.007Z,1.40
2022-08-31T18:02:13.172Z,1.50
2022-08-31T18:04:16.187Z,1.90
2022-08-31T18:06:19.022Z,1.20
2022-08-31T18:08:24.452Z,1.00
2022-08-31T18:10:27.231Z,1.33
2022-08-31T18:12:30.194Z,1.47
2022-08-31T18:14:33.380Z,1.30
2022-08-31T18:16:36.763Z,1.40
2022-08-31T18:18:45.585Z,1.57
2022-08-31T18:20:48.356Z,1.43
2022-08-31T18:22:52.579Z,1.40
2022-08-31T18:24:55.816Z,1.37
2022-08-31T18:27:03.183Z,1.57
2022-08-31T18:29:08.093Z,1.33
2022-08-31T18:31:10.935Z,1.20
2022-08-31T18:33:13.919Z,1.40
2022-08-31T18:35:19.688Z,1.60
2022-08-31T18:37:25.605Z,1.50
2022-08-31T18:39:51.226Z,0.98
2022-08-31T18:42:12.440Z,1.50
2022-08-31T18:44:44.478Z,1.37
2022-08-31T18:46:47.672Z,1.30
2022-08-31T18:49:01.123Z,1.50
2022-08-31T18:51:13.639Z,1.53
2022-08-31T18:53:29.314Z,1.30
2022-08-31T18:55:32.976Z,1.50
2022-08-31T18:57:45.393Z,1.33
2022-08-31T18:59:51.762Z,1.50
2022-08-31T19:01:54.944Z,2.00
2022-08-31T19:03:58.637Z,1.60
2022-08-31T19:06:01.518Z,1.60
2022-08-31T19:08:06.278Z,1.40
2022-08-31T19:10:12.842Z,1.63
2022-08-31T19:12:20.611Z,1.37
2022-08-31T19:14:26.043Z,1.80
2022-08-31T19:16:31.568Z,1.20
2022-08-31T19:18:34.465Z,1.60
2022-08-31T19:20:37.259Z,1.93
2022-08-31T19:22:40.072Z,2.07
2022-08-31T19:24:44.197Z,1.87
2022-08-31T19:26:48.302Z,1.60
2022-08-31T19:28:51.279Z,1.57
2022-08-31T19:30:54.167Z,1.20
2022-08-31T19:32:57.111Z,1.97
2022-08-31T19:34:59.979Z,1.77
2022-08-31T19:37:02.779Z,1.90
2022-08-31T19:39:06.977Z,1.63
2022-08-31T19:41:16.931Z,1.60
2022-08-31T19:45:45.710Z,1.33
2022-08-31T19:47:48.839Z,1.60
2022-08-31T19:49:52.867Z,1.83
2022-08-31T19:52:00.520Z,1.57
2022-08-31T19:54:05.531Z,1.57
2022-08-31T19:56:10.830Z,1.83
2022-08-31T19:58:14.960Z,1.10
2022-08-31T20:00:18.351Z,1.50
2022-08-31T20:02:21.677Z,1.63
2022-08-31T20:04:26.988Z,1.53
2022-08-31T20:06:31.630Z,1.50
2022-08-31T20:08:34.715Z,1.50
2022-08-31T20:10:41.032Z,1.90
2022-08-31T20:12:46.530Z,1.67
2022-08-31T20:14:51.107Z,1.60
2022-08-31T20:16:54.863Z,1.83
2022-08-31T20:18:57.807Z,1.10
2022-08-31T20:21:01.282Z,1.67
2022-08-31T20:23:04.879Z,2.03
2022-08-31T20:25:09.115Z,2.00
2022-08-31T20:27:16.450Z,1.33
2022-08-31T20:29:21.540Z,1.30
2022-08-31T20:31:25.720Z,1.40
2022-08-31T20:33:28.701Z,1.30
2022-08-31T20:35:32.724Z,1.83
2022-08-31T20:37:35.532Z,1.50
2022-08-31T20:39:43.432Z,1.70
2022-08-31T20:41:47.578Z,1.73
2022-08-31T20:43:50.671Z,1.90
2022-08-31T20:45:53.416Z,1.83
2022-08-31T20:48:15.068Z,1.57
2022-08-31T20:50:17.896Z,2.00
2022-08-31T20:52:20.825Z,2.53
2022-08-31T20:54:24.055Z,1.73
2022-08-31T20:56:27.110Z,1.50
2022-08-31T20:58:31.137Z,1.50
2022-08-31T21:00:33.843Z,1.53
2022-08-31T21:02:39.720Z,1.40
2022-08-31T21:04:45.225Z,1.17
2022-08-31T21:06:47.935Z,1.30
2022-08-31T21:08:56.462Z,1.50
2022-08-31T21:10:59.393Z,1.40
2022-08-31T21:13:02.155Z,1.10
2022-08-31T21:15:05.633Z,1.63
2022-08-31T21:17:08.554Z,1.23
2022-08-31T21:19:13.399Z,1.50
2022-08-31T21:21:17.616Z,1.20
2022-08-31T21:23:22.368Z,1.47
2022-08-31T21:25:25.885Z,1.40
2022-08-31T21:27:28.759Z,1.50
2022-08-31T21:29:31.488Z,1.20
2022-08-31T21:31:34.235Z,1.67
2022-08-31T21:33:37.032Z,1.10
2022-08-31T21:35:41.192Z,1.40
2022-08-31T21:37:45.233Z,1.57
2022-08-31T21:39:47.946Z,1.10
2022-08-31T21:41:50.992Z,1.50
2022-08-31T21:43:53.721Z,2.07
2022-08-31T21:46:03.021Z,1.80
2022-08-31T21:48:05.784Z,1.57
2022-08-31T21:50:09.852Z,1.37
2022-08-31T21:52:12.635Z,1.35
2022-08-31T21:54:17.449Z,1.57
2022-08-31T21:56:20.440Z,1.47
2022-08-31T21:58:23.574Z,1.63
2022-08-31T22:00:29.450Z,1.20
2022-08-31T22:02:32.200Z,1.40
2022-08-31T22:04:36.007Z,1.23
2022-08-31T22:06:38.807Z,1.37
2022-08-31T22:08:41.988Z,1.20
2022-08-31T22:10:46.043Z,0.90
2022-08-31T22:12:48.748Z,1.20
2022-08-31T22:14:51.477Z,1.40
2022-08-31T22:16:54.722Z,1.40
2022-08-31T22:19:02.542Z,1.27
2022-08-31T22:21:07.283Z,1.80
2022-08-31T22:23:10.731Z,1.00
2022-08-31T22:25:13.628Z,1.40
2022-08-31T22:27:17.663Z,1.30
2022-08-31T22:29:23.645Z,1.10
2022-08-31T22:31:27.256Z,1.50
2022-08-31T22:33:30.206Z,1.40
2022-08-31T22:35:32.908Z,1.20
2022-08-31T22:37:38.179Z,1.43
2022-08-31T22:39:42.387Z,1.40
2022-08-31T22:41:47.180Z,1.47
2022-08-31T22:43:51.228Z,0.90
2022-08-31T22:45:54.883Z,1.90
2022-08-31T22:47:57.619Z,1.40
2022-08-31T22:50:00.338Z,1.50
2022-08-31T22:52:03.203Z,1.43
2022-08-31T22:54:06.317Z,1.70
2022-08-31T22:56:10.873Z,1.53
2022-08-31T22:58:13.662Z,1.67
2022-08-31T23:00:19.588Z,1.40
2022-08-31T23:02:25.173Z,1.40
2022-08-31T23:04:28.196Z,1.30
2022-08-31T23:06:32.211Z,1.57
2022-08-31T23:08:35.119Z,1.30
2022-08-31T23:10:38.059Z,1.40
2022-08-31T23:12:40.780Z,1.20
2022-08-31T23:14:43.492Z,1.70
2022-08-31T23:16:57.084Z,1.47
2022-08-31T23:19:01.905Z,1.60
2022-08-31T23:21:08.591Z,1.43
2022-08-31T23:23:11.274Z,1.37
2022-08-31T23:25:17.188Z,1.23
2022-08-31T23:27:21.427Z,1.00
2022-08-31T23:29:25.261Z,1.10
2022-08-31T23:31:28.234Z,1.27
2022-08-31T23:33:32.331Z,1.43
2022-08-31T23:35:35.235Z,1.33
2022-08-31T23:37:37.955Z,1.40
2022-08-31T23:39:43.340Z,1.50
2022-08-31T23:41:46.446Z,1.30
2022-08-31T23:43:52.303Z,1.53
2022-08-31T23:45:55.497Z,2.20
2022-08-31T23:47:58.503Z,1.70
2022-08-31T23:50:04.649Z,1.40
2022-08-31T23:52:07.508Z,1.37
2022-08-31T23:54:10.530Z,1.40
2022-08-31T23:56:13.476Z,1.57
2022-08-31T23:58:17.393Z,1.50
